Time;durP1;ratioP1;P1;durP2;ratioP2;P2;SDS_P1;SDS_P2;PMS_P1;PMS_P2;Temp;Humidity;BMP_temperature;BMP_pressure;BME280_temperature;BME280_humidity;BME280_pressure;Samples;Min_cycle;Max_cycle;Signal;HPM_P1;HPM_P2
2022/04/15 00:00:02;;;;;;;1999.90;999.90;;;11.60;99.90;;;;;;5095802;28;20946;-72
2022/04/15 00:02:29;;;;;;;1999.90;999.90;;;11.60;99.90;;;;;;5097138;28;20514;-71
2022/04/15 00:04:57;;;;;;;1999.90;999.90;;;11.60;99.90;;;;;;5078527;28;20456;-72
2022/04/15 00:07:24;;;;;;;1999.90;999.90;;;11.50;99.90;;;;;;5075529;28;20485;-73
2022/04/15 00:09:50;;;;;;;1999.90;999.90;;;11.50;99.90;;;;;;5077136;28;20503;-73
2022/04/15 00:12:27;;;;;;;1999.90;999.90;;;11.60;99.90;;;;;;5076222;28;20460;-71
2022/04/15 00:14:54;;;;;;;1999.90;999.90;;;11.60;99.90;;;;;;5073469;28;21051;-71
2022/04/15 00:17:22;;;;;;;1999.90;999.90;;;11.60;99.90;;;;;;5075344;28;20551;-69
2022/04/15 00:19:49;;;;;;;1999.90;999.90;;;11.50;99.90;;;;;;5056122;28;20447;-73
2022/04/15 00:22:16;;;;;;;1999.90;999.90;;;11.50;99.90;;;;;;5065810;28;20449;-71
2022/04/15 00:24:43;;;;;;;1999.90;999.90;;;11.40;99.90;;;;;;5075791;28;20441;-71
2022/04/15 00:27:09;;;;;;;1999.90;999.90;;;11.40;99.90;;;;;;5075205;28;20473;-71
2022/04/15 00:29:37;;;;;;;1999.90;999.90;;;11.50;99.90;;;;;;5092840;28;20445;-71
2022/04/15 00:32:04;;;;;;;1999.90;999.90;;;11.50;99.90;;;;;;5094233;28;20475;-70
2022/04/15 00:34:34;;;;;;;1999.90;999.90;;;11.40;99.90;;;;;;5075323;28;20452;-71
2022/04/15 00:37:01;;;;;;;1999.90;999.90;;;11.40;99.90;;;;;;5075169;28;20480;-71
2022/04/15 00:39:28;;;;;;;1999.90;999.90;;;11.40;99.90;;;;;;5055525;28;20446;-70
2022/04/15 00:41:54;;;;;;;1999.90;999.90;;;11.30;99.90;;;;;;5060978;28;20811;-72
2022/04/15 00:44:21;;;;;;;1999.90;999.90;;;11.20;99.90;;;;;;5094851;28;20448;-71
2022/04/15 00:46:48;;;;;;;1999.90;999.90;;;11.20;99.90;;;;;;5080665;28;20465;-70
2022/04/15 00:49:15;;;;;;;1999.90;999.90;;;11.20;99.90;;;;;;5075420;28;20492;-71
2022/04/15 00:51:44;;;;;;;1999.90;999.90;;;11.10;99.90;;;;;;5086239;28;20494;-71
2022/04/15 00:54:12;;;;;;;1999.90;999.90;;;11.10;99.90;;;;;;5095124;28;20975;-70
2022/04/15 00:56:42;;;;;;;1999.90;999.90;;;11.10;99.90;;;;;;5083584;28;20469;-69
2022/04/15 00:59:10;;;;;;;1999.90;999.90;;;11.10;99.90;;;;;;5075125;28;20947;-70
2022/04/15 01:01:40;;;;;;;1999.90;999.90;;;11.10;99.90;;;;;;5085292;28;20452;-71
2022/04/15 01:04:08;;;;;;;1999.90;999.90;;;11.10;99.90;;;;;;5094371;28;20536;-70
2022/04/15 01:06:37;;;;;;;1999.90;999.90;;;11.00;99.90;;;;;;5073233;28;20492;-70
2022/04/15 01:09:07;;;;;;;1999.90;999.90;;;11.00;99.90;;;;;;5085502;28;20476;-71
2022/04/15 01:11:34;;;;;;;1999.90;999.90;;;11.00;99.90;;;;;;5095062;28;20490;-71
2022/04/15 01:14:02;;;;;;;1999.90;999.90;;;11.00;99.90;;;;;;5085129;28;20453;-71
2022/04/15 01:16:30;;;;;;;1999.90;999.90;;;11.00;99.90;;;;;;5074114;28;20477;-73
2022/04/15 01:18:58;;;;;;;1999.90;999.90;;;11.00;99.90;;;;;;5082298;28;20493;-71
2022/04/15 01:21:26;;;;;;;1999.90;999.90;;;11.00;99.90;;;;;;5087229;28;20499;-72
2022/04/15 01:23:55;;;;;;;1999.90;999.90;;;11.00;99.90;;;;;;5074674;28;20481;-70
2022/04/15 01:26:22;;;;;;;1999.90;999.90;;;11.00;99.90;;;;;;5074330;28;20474;-70
2022/04/15 01:28:49;;;;;;;1999.90;999.90;;;10.90;99.90;;;;;;5076160;28;20516;-69
2022/04/15 01:31:16;;;;;;;1999.90;999.90;;;10.90;99.90;;;;;;5074350;28;20454;-71
2022/04/15 01:33:43;;;;;;;1999.90;999.90;;;10.90;99.90;;;;;;5080446;28;20521;-72
2022/04/15 01:36:11;;;;;;;1999.90;999.90;;;10.90;99.90;;;;;;5093127;28;20471;-70
2022/04/15 01:38:38;;;;;;;1999.90;999.90;;;10.90;99.90;;;;;;5078744;28;20460;-72
2022/04/15 01:41:06;;;;;;;1999.90;999.90;;;10.80;99.90;;;;;;5081171;28;20449;-71
2022/04/15 01:43:33;;;;;;;1999.90;999.90;;;10.80;99.90;;;;;;5077335;28;20452;-72
2022/04/15 01:46:00;;;;;;;1999.90;999.90;;;10.80;99.90;;;;;;5089796;28;20553;-72
2022/04/15 01:48:27;;;;;;;1999.90;999.90;;;10.70;99.90;;;;;;5078918;28;20484;-74
2022/04/15 01:50:54;;;;;;;1999.90;999.90;;;10.60;99.90;;;;;;5094949;28;20449;-71
2022/04/15 01:53:22;;;;;;;1999.90;999.90;;;10.50;99.90;;;;;;5089506;28;21008;-70
2022/04/15 01:55:49;;;;;;;1999.90;999.90;;;10.40;99.90;;;;;;5073998;28;20477;-75
2022/04/15 01:58:18;;;;;;;1999.90;999.90;;;10.30;99.90;;;;;;5076200;28;20979;-71
2022/04/15 02:00:45;;;;;;;1999.90;999.90;;;10.20;99.90;;;;;;5089941;28;20970;-71
2022/04/15 02:03:11;;;;;;;1999.90;999.90;;;10.10;99.90;;;;;;5073597;28;20449;-71
2022/04/15 02:05:38;;;;;;;1999.90;999.90;;;10.00;99.90;;;;;;5073543;28;20556;-71
2022/04/15 02:08:05;;;;;;;1999.90;999.90;;;9.90;99.90;;;;;;5074832;28;20469;-69
2022/04/15 02:10:32;;;;;;;1999.90;999.90;;;10.00;99.90;;;;;;5073553;28;20452;-70
2022/04/15 02:12:59;;;;;;;1999.90;999.90;;;9.90;99.90;;;;;;5074417;28;20457;-70
2022/04/15 02:15:28;;;;;;;1999.90;999.90;;;9.80;99.90;;;;;;5085289;28;20510;-68
2022/04/15 02:17:55;;;;;;;1999.90;999.90;;;9.80;99.90;;;;;;5073257;28;20495;-69
2022/04/15 02:20:22;;;;;;;1999.90;999.90;;;9.80;99.90;;;;;;5054025;28;20451;-68
2022/04/15 02:22:50;;;;;;;1999.90;999.90;;;9.70;99.90;;;;;;5058119;28;20460;-70
2022/04/15 02:25:17;;;;;;;1999.90;999.90;;;9.70;99.90;;;;;;5092270;28;20970;-71
2022/04/15 02:27:44;;;;;;;1999.90;999.90;;;9.60;99.90;;;;;;5092691;28;20444;-71
2022/04/15 02:30:11;;;;;;;1999.90;999.90;;;9.60;99.90;;;;;;5073318;28;20448;-72
2022/04/15 02:32:39;;;;;;;1999.90;999.90;;;9.50;99.90;;;;;;5073216;28;20486;-69
2022/04/15 02:35:09;;;;;;;1999.90;999.90;;;9.40;99.90;;;;;;5068561;28;20453;-69
2022/04/15 02:37:37;;;;;;;1999.90;999.90;;;9.30;99.90;;;;;;5073264;28;20962;-71
2022/04/15 02:40:06;;;;;;;1999.90;999.90;;;9.30;99.90;;;;;;5092793;28;20460;-68
2022/04/15 02:42:34;;;;;;;1999.90;999.90;;;9.30;99.90;;;;;;5080945;28;21045;-69
2022/04/15 02:45:00;;;;;;;1999.90;999.90;;;9.20;99.90;;;;;;5072802;28;20454;-71
2022/04/15 02:47:29;;;;;;;1999.90;999.90;;;9.30;99.90;;;;;;5074096;28;20466;-71
2022/04/15 02:49:57;;;;;;;1999.90;999.90;;;9.30;99.90;;;;;;5073082;28;20484;-73
2022/04/15 02:52:24;;;;;;;1999.90;999.90;;;9.20;99.90;;;;;;5081423;28;20483;-71
2022/04/15 02:54:51;;;;;;;1999.90;999.90;;;9.20;99.90;;;;;;5073312;28;20441;-68
2022/04/15 02:57:18;;;;;;;1999.90;999.90;;;9.20;99.90;;;;;;5080730;28;20471;-71
2022/04/15 02:59:44;;;;;;;1999.90;999.90;;;9.10;99.90;;;;;;5079610;28;20453;-72
2022/04/15 03:02:11;;;;;;;1999.90;999.90;;;9.00;99.90;;;;;;5066429;28;20497;-71
2022/04/15 03:04:38;;;;;;;1999.90;999.90;;;8.90;99.90;;;;;;5071842;28;20449;-70
2022/04/15 03:07:07;;;;;;;1999.90;999.90;;;8.90;99.90;;;;;;5079346;28;20497;-71
2022/04/15 03:09:34;;;;;;;1999.90;999.90;;;8.80;99.90;;;;;;5093160;28;20488;-71
2022/04/15 03:12:00;;;;;;;1999.90;999.90;;;8.80;99.90;;;;;;5087105;28;20457;-70
2022/04/15 03:14:27;;;;;;;1999.90;999.90;;;8.80;99.90;;;;;;5071372;28;20456;-70
2022/04/15 03:16:54;;;;;;;1999.90;999.90;;;8.70;99.90;;;;;;5076393;28;20480;-72
2022/04/15 03:19:21;;;;;;;1999.90;999.90;;;8.70;99.90;;;;;;5093226;28;20448;-71
2022/04/15 03:21:47;;;;;;;1999.90;999.90;;;8.80;99.90;;;;;;5089460;28;20514;-67
2022/04/15 03:24:15;;;;;;;1999.90;999.90;;;8.90;99.90;;;;;;5073056;28;20480;-69
2022/04/15 03:26:42;;;;;;;1999.90;999.90;;;9.10;99.90;;;;;;5074805;28;20465;-71
2022/04/15 03:29:09;;;;;;;1999.90;999.90;;;8.60;99.90;;;;;;5079639;28;20493;-67
2022/04/15 03:31:36;;;;;;;1999.90;999.90;;;8.60;99.90;;;;;;5076760;28;20961;-70
2022/04/15 03:34:03;;;;;;;1999.90;999.90;;;8.60;99.90;;;;;;5076717;28;20461;-71
2022/04/15 03:36:29;;;;;;;1999.90;999.90;;;8.60;99.90;;;;;;5076958;28;20469;-71
2022/04/15 03:38:56;;;;;;;1999.90;999.90;;;8.60;99.90;;;;;;5096108;28;20969;-71
2022/04/15 03:41:24;;;;;;;1999.90;999.90;;;8.60;99.90;;;;;;5095772;28;20861;-71
2022/04/15 03:43:51;;;;;;;1999.90;999.90;;;8.60;99.90;;;;;;5082356;28;20461;-71
2022/04/15 03:46:19;;;;;;;1999.90;999.90;;;8.60;99.90;;;;;;5076529;28;20562;-70
2022/04/15 03:48:46;;;;;;;1999.90;999.90;;;8.50;99.90;;;;;;5096883;28;20491;-71
2022/04/15 03:51:12;;;;;;;1999.90;999.90;;;8.50;99.90;;;;;;5097620;28;20451;-71
2022/04/15 03:53:39;;;;;;;1999.90;999.90;;;8.50;99.90;;;;;;5077772;28;21014;-69
2022/04/15 03:56:07;;;;;;;1999.90;999.90;;;8.50;99.90;;;;;;5076630;28;20586;-71
2022/04/15 03:58:35;;;;;;;1999.90;999.90;;;8.40;99.90;;;;;;5091801;28;20448;-70
2022/04/15 04:01:02;;;;;;;1999.90;999.90;;;8.40;99.90;;;;;;5096973;28;20455;-71
2022/04/15 04:03:29;;;;;;;1999.90;999.90;;;8.30;99.90;;;;;;5076820;28;20452;-69
2022/04/15 04:05:55;;;;;;;1999.90;999.90;;;8.40;99.90;;;;;;5076904;28;20465;-70
2022/04/15 04:08:22;;;;;;;1999.90;999.90;;;8.30;99.90;;;;;;5094876;28;20845;-68
2022/04/15 04:10:49;;;;;;;1999.90;999.90;;;8.30;99.90;;;;;;5076545;28;20468;-70
2022/04/15 04:13:15;;;;;;;1999.90;999.90;;;8.20;99.90;;;;;;5086753;28;20469;-73
2022/04/15 04:15:44;;;;;;;1999.90;999.90;;;8.30;99.90;;;;;;5076664;28;20898;-70
2022/04/15 04:18:13;;;;;;;1999.90;999.90;;;8.30;99.90;;;;;;5091622;28;20501;-71
2022/04/15 04:20:40;;;;;;;1999.90;999.90;;;8.30;99.90;;;;;;5096047;28;21283;-70
2022/04/15 04:23:06;;;;;;;1999.90;999.90;;;8.30;99.90;;;;;;5076006;28;21012;-71
2022/04/15 04:25:33;;;;;;;1999.90;999.90;;;8.30;99.90;;;;;;5076133;28;20514;-70
2022/04/15 04:28:00;;;;;;;1999.90;999.90;;;8.30;99.90;;;;;;5076465;28;20450;-71
2022/04/15 04:30:27;;;;;;;1999.90;999.90;;;8.30;99.90;;;;;;5076372;28;20473;-70
2022/04/15 04:32:58;;;;;;;1999.90;999.90;;;8.30;99.90;;;;;;5089679;28;20484;-70
2022/04/15 04:35:24;;;;;;;1999.90;999.90;;;8.20;99.90;;;;;;5076717;28;20430;-70
2022/04/15 04:37:51;;;;;;;1999.90;999.90;;;8.20;99.90;;;;;;5084408;28;20941;-70
2022/04/15 04:40:19;;;;;;;1999.90;999.90;;;8.20;99.90;;;;;;5077137;28;20499;-70
2022/04/15 04:42:47;;;;;;;1999.90;999.90;;;8.20;99.90;;;;;;5094628;28;20450;-71
2022/04/15 04:45:14;;;;;;;1999.90;999.90;;;8.20;99.90;;;;;;5076057;28;20433;-70
2022/04/15 04:47:42;;;;;;;1999.90;999.90;;;8.20;99.90;;;;;;5095918;28;20474;-71
2022/04/15 04:50:11;;;;;;;1999.90;999.90;;;8.20;99.90;;;;;;5096402;28;20503;-70
2022/04/15 04:52:39;;;;;;;1999.90;999.90;;;8.20;99.90;;;;;;5075383;28;20455;-71
2022/04/15 04:55:07;;;;;;;1999.90;999.90;;;8.20;99.90;;;;;;5076239;28;20454;-70
2022/04/15 04:57:35;;;;;;;1999.90;999.90;;;8.20;99.90;;;;;;5075662;28;20480;-70
2022/04/15 05:00:01;;;;;;;1999.90;999.90;;;8.20;99.90;;;;;;5075613;28;20453;-70
2022/04/15 05:02:28;;;;;;;1999.90;999.90;;;8.30;99.90;;;;;;5094554;28;20452;-68
2022/04/15 05:04:55;;;;;;;1999.90;999.90;;;8.20;99.90;;;;;;5077537;28;20446;-71
2022/04/15 05:07:23;;;;;;;1999.90;999.90;;;8.20;99.90;;;;;;5083050;28;20561;-69
2022/04/15 05:09:51;;;;;;;1999.90;999.90;;;8.20;99.90;;;;;;5075596;28;20481;-69
2022/04/15 05:12:19;;;;;;;1999.90;999.90;;;8.20;99.90;;;;;;5092452;28;20538;-69
2022/04/15 05:14:45;;;;;;;1999.90;999.90;;;8.20;99.90;;;;;;5078545;28;20452;-68
2022/04/15 05:17:12;;;;;;;1999.90;999.90;;;8.30;99.90;;;;;;5096013;23;20503;-64
2022/04/15 05:19:39;;;;;;;1999.90;999.90;;;8.30;99.90;;;;;;5069481;28;20442;-65
2022/04/15 05:22:05;;;;;;;1999.90;999.90;;;8.30;99.90;;;;;;5069885;28;20496;-64
2022/04/15 05:24:33;;;;;;;1999.90;999.90;;;8.30;99.90;;;;;;5069345;28;20939;-63
2022/04/15 05:27:00;;;;;;;1999.90;999.90;;;8.40;99.90;;;;;;5070292;28;20469;-64
2022/04/15 05:29:27;;;;;;;1999.90;999.90;;;8.40;99.90;;;;;;5069591;28;20527;-62
2022/04/15 05:31:53;;;;;;;1999.90;999.90;;;8.30;99.90;;;;;;5069742;28;20876;-64
2022/04/15 05:34:20;;;;;;;1999.90;999.90;;;8.30;99.90;;;;;;5069918;28;20792;-62
2022/04/15 05:36:47;;;;;;;1999.90;999.90;;;8.30;99.90;;;;;;5071322;28;20472;-64
2022/04/15 05:39:14;;;;;;;1999.90;999.90;;;8.40;99.90;;;;;;5069900;28;20445;-63
2022/04/15 05:41:42;;;;;;;1999.90;999.90;;;8.30;99.90;;;;;;5069606;28;20511;-64
2022/04/15 05:44:12;;;;;;;1999.90;999.90;;;8.30;99.90;;;;;;5068638;28;20589;-64
2022/04/15 05:46:39;;;;;;;1999.90;999.90;;;8.20;99.90;;;;;;5068870;28;21033;-64
2022/04/15 05:49:08;;;;;;;1999.90;999.90;;;8.30;99.90;;;;;;5087270;28;20465;-65
2022/04/15 05:51:35;;;;;;;1999.90;999.90;;;8.20;99.90;;;;;;5069309;28;20556;-64
2022/04/15 05:54:01;;;;;;;1999.90;999.90;;;8.20;99.90;;;;;;5069422;28;20450;-64
2022/04/15 05:56:28;;;;;;;1999.90;999.90;;;8.20;99.90;;;;;;5069040;28;20457;-65
2022/04/15 05:58:56;;;;;;;1999.90;999.90;;;8.30;99.90;;;;;;5069350;28;20442;-63
2022/04/15 06:01:22;;;;;;;1999.90;999.90;;;8.30;99.90;;;;;;5068995;28;20950;-66
2022/04/15 06:03:49;;;;;;;1999.90;999.90;;;8.30;99.90;;;;;;5068374;28;20478;-65
2022/04/15 06:06:16;;;;;;;1999.90;999.90;;;8.40;99.90;;;;;;5068521;28;20454;-64
2022/04/15 06:08:43;;;;;;;1999.90;999.90;;;8.50;99.90;;;;;;5068995;28;20480;-64
2022/04/15 06:11:09;;;;;;;1999.90;999.90;;;8.40;99.90;;;;;;5069013;28;20473;-65
2022/04/15 06:13:37;;;;;;;1999.90;999.90;;;8.40;99.90;;;;;;5067577;28;20449;-64
2022/04/15 06:16:09;;;;;;;1999.90;999.90;;;8.40;99.90;;;;;;5068531;28;20454;-65
2022/04/15 06:18:36;;;;;;;1999.90;999.90;;;8.50;99.90;;;;;;5068105;28;20484;-65
2022/04/15 06:21:03;;;;;;;1999.90;999.90;;;8.50;99.90;;;;;;5069435;28;20501;-63
2022/04/15 06:23:30;;;;;;;1999.90;999.90;;;8.50;99.90;;;;;;5067926;28;20883;-64
2022/04/15 06:25:57;;;;;;;1999.90;999.90;;;8.50;99.90;;;;;;5068244;28;20457;-64
2022/04/15 06:28:23;;;;;;;1999.90;999.90;;;8.60;99.90;;;;;;5069813;28;20473;-64
2022/04/15 06:30:50;;;;;;;1999.90;999.90;;;8.60;99.90;;;;;;5068838;28;20485;-65
2022/04/15 06:33:20;;;;;;;1999.90;999.90;;;8.60;99.90;;;;;;5071959;28;20448;-64
2022/04/15 06:35:46;;;;;;;1999.90;999.90;;;8.70;99.90;;;;;;5067935;28;20455;-65
2022/04/15 06:38:13;;;;;;;1999.90;999.90;;;8.80;99.90;;;;;;5071984;28;20469;-64
2022/04/15 06:40:40;;;;;;;1999.90;999.90;;;8.80;99.90;;;;;;5053604;28;20442;-63
2022/04/15 06:43:08;;;;;;;1999.90;999.90;;;8.80;99.90;;;;;;5074630;28;20453;-64
2022/04/15 06:45:35;;;;;;;1999.90;999.90;;;8.80;99.90;;;;;;5080696;28;20518;-64
2022/04/15 06:48:01;;;;;;;1999.90;999.90;;;8.70;99.90;;;;;;5080955;28;20519;-65
2022/04/15 06:50:31;;;;;;;1999.90;999.90;;;8.70;99.90;;;;;;5080206;28;21059;-64
2022/04/15 06:52:57;;;;;;;1999.90;999.90;;;8.50;99.90;;;;;;5051516;28;21114;-63
2022/04/15 06:55:24;;;;;;;1999.90;999.90;;;8.50;99.90;;;;;;5069869;28;20449;-64
2022/04/15 06:57:51;;;;;;;1999.90;999.90;;;8.40;99.90;;;;;;5068317;28;20510;-64
2022/04/15 07:00:18;;;;;;;1999.90;999.90;;;8.30;99.90;;;;;;5068226;28;20503;-64
2022/04/15 07:02:45;;;;;;;1999.90;999.90;;;8.40;99.90;;;;;;5067617;28;20583;-64
2022/04/15 07:05:12;;;;;;;1999.90;999.90;;;8.40;99.90;;;;;;5067764;28;21016;-64
2022/04/15 07:07:40;;;;;;;1999.90;999.90;;;8.40;99.90;;;;;;5068594;28;20526;-64
2022/04/15 07:10:09;;;;;;;1999.90;999.90;;;8.40;99.90;;;;;;5068066;28;21006;-65
2022/04/15 07:12:36;;;;;;;1999.90;999.90;;;8.50;99.90;;;;;;5067119;28;20457;-64
2022/04/15 07:15:03;;;;;;;1999.90;999.90;;;8.50;99.90;;;;;;5069557;28;20507;-65
2022/04/15 07:17:29;;;;;;;1999.90;999.90;;;8.60;99.90;;;;;;5067781;28;20489;-64
2022/04/15 07:19:56;;;;;;;1999.90;999.90;;;8.70;99.90;;;;;;5067968;28;20441;-63
2022/04/15 07:22:23;;;;;;;1999.90;999.90;;;8.70;99.90;;;;;;5064128;28;20508;-64
2022/04/15 07:24:51;;;;;;;1999.90;999.90;;;8.70;99.90;;;;;;5066726;28;20492;-64
2022/04/15 07:27:18;;;;;;;1999.90;999.90;;;8.70;99.90;;;;;;5068376;28;20998;-65
2022/04/15 07:29:45;;;;;;;1999.90;999.90;;;8.70;99.90;;;;;;5071215;28;20532;-64
2022/04/15 07:32:13;;;;;;;1999.90;999.90;;;8.70;99.90;;;;;;5071064;28;20440;-64
2022/04/15 07:34:40;;;;;;;1999.90;999.90;;;8.70;99.90;;;;;;5070716;28;20495;-64
2022/04/15 07:37:07;;;;;;;1999.90;999.90;;;8.70;99.90;;;;;;5067054;28;20469;-71
2022/04/15 07:39:33;;;;;;;1999.90;999.90;;;8.80;99.90;;;;;;5070748;28;20736;-67
2022/04/15 07:42:01;;;;;;;1999.90;999.90;;;9.00;99.90;;;;;;5086452;28;20434;-67
2022/04/15 07:44:28;;;;;;;1999.90;999.90;;;9.00;99.90;;;;;;5091018;28;20450;-66
2022/04/15 07:46:55;;;;;;;1999.90;999.90;;;9.10;99.90;;;;;;5096542;28;20461;-67
2022/04/15 07:49:21;;;;;;;1999.90;999.90;;;9.10;99.90;;;;;;5092923;28;20491;-67
2022/04/15 07:51:48;;;;;;;1999.90;999.90;;;9.10;99.90;;;;;;5099152;28;20461;-66
2022/04/15 07:54:16;;;;;;;1999.90;999.90;;;9.30;99.90;;;;;;5093014;28;20481;-68
2022/04/15 07:56:43;;;;;;;1999.90;999.90;;;9.60;99.90;;;;;;5074602;28;20522;-67
2022/04/15 07:59:10;;;;;;;1999.90;999.90;;;9.90;99.90;;;;;;5071320;28;20465;-69
2022/04/15 08:01:38;;;;;;;1999.90;999.90;;;10.10;99.90;;;;;;5074471;28;20504;-67
2022/04/15 08:04:05;;;;;;;1999.90;999.90;;;10.30;99.90;;;;;;5070230;28;20436;-67
2022/04/15 08:06:32;;;;;;;1999.90;999.90;;;10.70;99.90;;;;;;5070576;28;20465;-67
2022/04/15 08:09:00;;;;;;;1999.90;999.90;;;11.00;99.90;;;;;;5071280;28;20441;-66
2022/04/15 08:11:27;;;;;;;1999.90;999.90;;;11.40;99.90;;;;;;5080398;28;20505;-66
2022/04/15 08:13:55;;;;;;;1999.90;999.90;;;11.20;99.90;;;;;;5073057;28;20876;-65
2022/04/15 08:16:24;;;;;;;1999.90;999.90;;;11.50;99.90;;;;;;5072710;28;20871;-67
2022/04/15 08:18:51;;;;;;;1999.90;999.90;;;11.60;99.90;;;;;;5074217;28;20490;-67
2022/04/15 08:21:18;;;;;;;1999.90;999.90;;;11.50;99.90;;;;;;5073997;28;20464;-67
2022/04/15 08:23:45;;;;;;;1999.90;999.90;;;11.40;99.90;;;;;;5073501;28;21008;-67
2022/04/15 08:26:12;;;;;;;1999.90;999.90;;;11.40;99.90;;;;;;5073142;28;20457;-65
2022/04/15 08:28:39;;;;;;;1999.90;999.90;;;11.40;99.90;;;;;;5074515;28;20494;-68
2022/04/15 08:31:07;;;;;;;1999.90;999.90;;;11.30;99.90;;;;;;5074161;28;20473;-67
2022/04/15 08:33:35;;;;;;;1999.90;999.90;;;11.20;99.90;;;;;;5073971;28;20450;-67
2022/04/15 08:36:02;;;;;;;1999.90;999.90;;;11.30;99.90;;;;;;5074417;28;20523;-67
2022/04/15 08:38:29;;;;;;;1999.90;999.90;;;11.40;99.90;;;;;;5074321;28;20469;-67
2022/04/15 08:40:58;;;;;;;1999.90;999.90;;;11.50;99.90;;;;;;5074333;28;20441;-67
2022/04/15 08:43:25;;;;;;;1999.90;999.90;;;11.20;99.90;;;;;;5073887;28;20456;-66
2022/04/15 08:45:52;;;;;;;1999.90;999.90;;;11.20;99.90;;;;;;5074143;28;20453;-67
2022/04/15 08:48:19;;;;;;;1999.90;999.90;;;11.20;99.90;;;;;;5073356;28;20473;-67
2022/04/15 08:50:47;;;;;;;1999.90;999.90;;;11.20;99.90;;;;;;5074040;28;20477;-67
2022/04/15 08:53:15;;;;;;;1999.90;999.90;;;11.20;99.90;;;;;;5073522;28;20458;-67
2022/04/15 08:55:42;;;;;;;1999.90;999.90;;;10.90;99.90;;;;;;5074258;28;20471;-67
2022/04/15 08:58:08;;;;;;;1999.90;999.90;;;10.70;99.90;;;;;;5073840;28;20514;-67
2022/04/15 09:00:36;;;;;;;1999.90;999.90;;;10.70;99.90;;;;;;5074001;28;20491;-67
2022/04/15 09:03:03;;;;;;;1999.90;999.90;;;10.70;99.90;;;;;;5072929;28;20450;-68
2022/04/15 09:05:30;;;;;;;1999.90;999.90;;;10.80;99.90;;;;;;5073348;28;20449;-67
2022/04/15 09:08:06;;;;;;;1999.90;999.90;;;10.80;99.90;;;;;;5073484;28;20469;-67
2022/04/15 09:10:34;;;;;;;1999.90;999.90;;;10.90;99.90;;;;;;5074022;28;20473;-67
2022/04/15 09:13:01;;;;;;;1999.90;999.90;;;10.80;99.90;;;;;;5073423;28;20453;-68
2022/04/15 09:15:27;;;;;;;1999.90;999.90;;;10.80;99.90;;;;;;5073527;28;20473;-65
2022/04/15 09:17:54;;;;;;;1999.90;999.90;;;10.90;99.90;;;;;;5073157;28;20481;-66
2022/04/15 09:20:23;;;;;;;1999.90;999.90;;;10.90;99.90;;;;;;5073161;28;20880;-67
2022/04/15 09:22:55;;;;;;;1999.90;999.90;;;10.90;99.90;;;;;;5073108;28;20503;-67
2022/04/15 09:25:27;;;;;;;1999.90;999.90;;;10.60;99.90;;;;;;5073477;28;20433;-67
2022/04/15 09:27:55;;;;;;;1999.90;999.90;;;10.50;99.90;;;;;;5087544;28;20475;-67
2022/04/15 09:30:33;;;;;;;1999.90;999.90;;;10.50;99.90;;;;;;5063830;28;20481;-67
2022/04/15 09:33:02;;;;;;;1999.90;999.90;;;10.50;99.90;;;;;;5072133;28;20989;-66
2022/04/15 09:35:28;;;;;;;1999.90;999.90;;;10.60;99.90;;;;;;5069247;28;20448;-67
2022/04/15 09:37:59;;;;;;;1999.90;999.90;;;10.60;99.90;;;;;;5074078;28;20519;-67
2022/04/15 09:40:27;;;;;;;1999.90;999.90;;;10.70;99.90;;;;;;5073346;28;20507;-67
2022/04/15 09:42:55;;;;;;;1999.90;999.90;;;10.90;99.90;;;;;;5057464;28;20446;-68
2022/04/15 09:45:24;;;;;;;1999.90;999.90;;;11.20;99.90;;;;;;5053256;28;20500;-68
2022/04/15 09:47:54;;;;;;;1999.90;999.90;;;11.40;99.90;;;;;;5055035;28;20878;-67
2022/04/15 09:50:27;;;;;;;1999.90;999.90;;;11.40;99.90;;;;;;5072503;28;20531;-68
2022/04/15 09:52:54;;;;;;;1999.90;999.90;;;11.30;99.90;;;;;;5072583;28;20445;-67
2022/04/15 09:55:23;;;;;;;1999.90;999.90;;;11.20;99.90;;;;;;5055462;28;20449;-66
2022/04/15 09:57:51;;;;;;;1999.90;999.90;;;11.10;99.90;;;;;;5055939;28;20560;-67
2022/04/15 10:00:20;;;;;;;1999.90;999.90;;;11.00;99.90;;;;;;5071934;28;20445;-66
2022/04/15 10:02:47;;;;;;;1999.90;999.90;;;10.80;99.90;;;;;;5069795;28;20458;-67
2022/04/15 10:05:15;;;;;;;1999.90;999.90;;;10.90;99.90;;;;;;5071772;28;20475;-67
2022/04/15 10:07:42;;;;;;;1999.90;999.90;;;11.00;99.90;;;;;;5070465;28;21030;-68
2022/04/15 10:10:10;;;;;;;1999.90;999.90;;;11.00;99.90;;;;;;5066578;28;20947;-67
2022/04/15 10:12:39;;;;;;;1999.90;999.90;;;11.10;99.90;;;;;;5069466;28;20806;-67
2022/04/15 10:15:10;;;;;;;1999.90;999.90;;;11.10;99.90;;;;;;5070668;28;20824;-67
2022/04/15 10:17:39;;;;;;;1999.90;999.90;;;11.00;99.90;;;;;;5069871;28;20584;-67
2022/04/15 10:20:06;;;;;;;1999.90;999.90;;;10.90;99.90;;;;;;5070786;28;20861;-67
2022/04/15 10:22:36;;;;;;;1999.90;999.90;;;10.90;99.90;;;;;;5071511;28;20456;-68
2022/04/15 10:25:03;;;;;;;1999.90;999.90;;;11.00;99.90;;;;;;5072561;28;20453;-67
2022/04/15 10:27:31;;;;;;;1999.90;999.90;;;10.90;99.90;;;;;;5072204;28;20523;-67
2022/04/15 10:30:01;;;;;;;1999.90;999.90;;;10.90;99.90;;;;;;5070275;28;20910;-67
2022/04/15 10:32:29;;;;;;;1999.90;999.90;;;11.30;99.90;;;;;;5060512;28;20500;-68
2022/04/15 10:35:00;;;;;;;1999.90;999.90;;;11.50;99.90;;;;;;5078626;28;20442;-67
2022/04/15 10:37:47;;;;;;;1999.90;999.90;;;11.60;99.90;;;;;;5071379;28;20560;-67
2022/04/15 10:40:27;;;;;;;1999.90;999.90;;;11.70;99.90;;;;;;5072971;28;20440;-67
2022/04/15 10:42:54;;;;;;;1999.90;999.90;;;11.70;99.90;;;;;;5060976;28;20806;-67
2022/04/15 10:45:29;;;;;;;1999.90;999.90;;;11.60;99.90;;;;;;5070750;28;20531;-68
2022/04/15 10:47:59;;;;;;;1999.90;999.90;;;11.40;99.90;;;;;;5067259;28;20899;-67
2022/04/15 10:50:28;;;;;;;1999.90;999.90;;;11.50;99.90;;;;;;5072057;28;20453;-67
2022/04/15 10:53:33;;;;;;;1999.90;999.90;;;11.60;99.90;;;;;;5071587;28;20453;-67
2022/04/15 10:56:08;;;;;;;1999.90;999.90;;;11.80;99.90;;;;;;5067372;28;20512;-67
2022/04/15 11:01:13;;;;;;;1999.90;999.90;;;12.00;99.90;;;;;;5063643;28;20892;-65
2022/04/15 11:01:35;;;;;;;1999.90;999.90;;;12.30;99.90;;;;;;5073012;28;20479;-67
2022/04/15 11:04:08;;;;;;;1999.90;999.90;;;12.30;99.90;;;;;;5070460;28;20839;-66
2022/04/15 11:06:34;;;;;;;1999.90;999.90;;;12.40;99.90;;;;;;5063742;28;20724;-65
2022/04/15 11:09:15;;;;;;;1999.90;999.90;;;12.40;99.90;;;;;;5070794;28;20495;-65
2022/04/15 11:11:45;;;;;;;1999.90;999.90;;;12.60;99.90;;;;;;5074418;28;20488;-65
2022/04/15 11:14:16;;;;;;;1999.90;999.90;;;12.70;99.90;;;;;;5076685;28;20445;-65
2022/04/15 11:16:46;;;;;;;1999.90;999.90;;;12.80;99.90;;;;;;5080994;28;20498;-64
2022/04/15 11:19:12;;;;;;;1999.90;999.90;;;12.70;99.90;;;;;;5059537;28;20473;-65
2022/04/15 11:21:40;;;;;;;1999.90;999.90;;;12.60;99.90;;;;;;5052214;23;20503;-68
2022/04/15 11:24:09;;;;;;;1999.90;999.90;;;12.50;99.90;;;;;;5030249;28;20447;-69
2022/04/15 11:26:38;;;;;;;1999.90;999.90;;;12.60;99.90;;;;;;5032226;28;20949;-68
2022/04/15 11:29:07;;;;;;;1999.90;999.90;;;12.30;99.90;;;;;;5031888;28;20501;-69
2022/04/15 11:31:35;;;;;;;1999.90;999.90;;;12.10;99.90;;;;;;5031204;28;20479;-68
2022/04/15 11:34:07;;;;;;;1999.90;999.90;;;11.90;99.90;;;;;;5030967;28;21121;-68
2022/04/15 11:36:36;;;;;;;1999.90;999.90;;;11.90;99.90;;;;;;5029443;28;20487;-68
2022/04/15 11:39:04;;;;;;;1999.90;999.90;;;11.90;99.90;;;;;;5031146;28;20450;-68
2022/04/15 11:41:31;;;;;;;1999.90;999.90;;;11.80;99.90;;;;;;5031454;28;20521;-67
2022/04/15 11:44:01;;;;;;;1999.90;999.90;;;11.80;99.90;;;;;;5031071;28;20451;-68
2022/04/15 11:46:39;;;;;;;1999.90;999.90;;;11.70;99.90;;;;;;5031073;28;20447;-68
2022/04/15 11:49:12;;;;;;;1999.90;999.90;;;11.80;99.90;;;;;;5033054;28;20470;-67
2022/04/15 11:51:39;;;;;;;1999.90;999.90;;;11.80;99.90;;;;;;5034457;28;20503;-68
2022/04/15 11:54:06;;;;;;;1999.90;999.90;;;11.70;99.90;;;;;;5034346;28;20944;-68
2022/04/15 11:56:35;;;;;;;1999.90;999.90;;;11.90;99.90;;;;;;5034643;28;21018;-68
2022/04/15 11:59:04;;;;;;;1999.90;999.90;;;12.00;99.90;;;;;;5033950;28;20517;-68
2022/04/15 12:01:32;;;;;;;1999.90;999.90;;;11.90;99.90;;;;;;5028064;28;20467;-68
2022/04/15 12:03:59;;;;;;;1999.90;999.90;;;12.00;99.90;;;;;;5035135;28;20457;-67
2022/04/15 12:06:27;;;;;;;1999.90;999.90;;;12.10;99.90;;;;;;5034150;28;20449;-69